TimeCST,TemperatureF,Dew PointF,Humidity,Sea Level PressureIn,VisibilityMPH,Wind Direction,Wind SpeedMPH,Gust SpeedMPH,PrecipitationIn,Events,Conditions,WindDirDegrees,DateUTC
12:15 AM,15.8,5.9,65,30.39,10.0,NNE,8.1,-,N/A,,Overcast,20,2013-12-23 06:15:00
12:35 AM,15.8,5.9,65,30.39,10.0,NNE,8.1,-,N/A,,Overcast,20,2013-12-23 06:35:00
12:55 AM,15.4,7.0,69,30.39,4.0,NNE,9.2,-,N/A,Snow,Light Snow,20,2013-12-23 06:55:00
1:15 AM,15.1,8.6,76,30.40,3.0,North,10.4,-,N/A,Snow,Light Snow,360,2013-12-23 07:15:00
1:35 AM,14.9,9.0,77,30.40,3.0,North,5.8,-,N/A,Snow,Light Snow,360,2013-12-23 07:35:00
1:55 AM,14.9,9.3,79,30.42,3.0,North,8.1,-,N/A,Snow,Light Snow,350,2013-12-23 07:55:00
2:15 AM,14.9,9.3,79,30.43,2.0,North,6.9,-,N/A,Snow,Light Snow,350,2013-12-23 08:15:00
2:35 AM,14.7,9.5,80,30.43,2.0,North,8.1,-,N/A,Snow,Light Snow,350,2013-12-23 08:35:00
2:55 AM,14.5,9.3,80,30.43,2.0,NNW,10.4,-,N/A,Snow,Light Snow,340,2013-12-23 08:55:00
3:15 AM,14.0,9.0,80,30.44,3.0,NNW,9.2,-,N/A,Snow,Light Snow,340,2013-12-23 09:15:00
3:35 AM,14.0,7.5,75,30.45,7.0,North,8.1,17.3,N/A,Snow,Light Snow,350,2013-12-23 09:35:00
3:55 AM,13.5,6.3,73,30.46,7.0,North,10.4,-,N/A,Snow,Light Snow,360,2013-12-23 09:55:00
4:15 AM,12.9,6.4,75,30.46,4.0,North,11.5,16.1,N/A,Snow,Light Snow,360,2013-12-23 10:15:00
4:35 AM,12.6,6.6,77,30.46,5.0,North,9.2,-,N/A,Snow,Light Snow,360,2013-12-23 10:35:00
4:55 AM,12.4,6.8,78,30.47,4.0,North,9.2,-,N/A,Snow,Light Snow,350,2013-12-23 10:55:00
5:15 AM,12.0,6.4,78,30.46,2.5,North,9.2,-,N/A,Snow,Light Snow,360,2013-12-23 11:15:00
5:35 AM,12.0,6.4,78,30.47,4.0,North,8.1,-,N/A,Snow,Light Snow,360,2013-12-23 11:35:00
5:55 AM,11.5,4.1,72,30.49,7.0,North,12.7,-,N/A,Snow,Light Snow,350,2013-12-23 11:55:00
6:15 AM,11.1,3.2,70,30.49,10.0,North,11.5,17.3,N/A,Snow,Light Snow,350,2013-12-23 12:15:00
6:35 AM,11.1,3.7,72,30.51,10.0,North,8.1,-,N/A,,Overcast,350,2013-12-23 12:35:00
6:55 AM,11.1,3.9,73,30.51,7.0,North,8.1,-,N/A,Snow,Light Snow,350,2013-12-23 12:55:00
7:15 AM,11.3,3.9,72,30.52,10.0,North,9.2,-,N/A,,Overcast,350,2013-12-23 13:15:00
7:35 AM,11.3,3.2,70,30.54,10.0,NNW,11.5,-,N/A,Snow,Light Snow,340,2013-12-23 13:35:00
7:55 AM,11.3,3.0,69,30.55,10.0,NNW,9.2,-,N/A,,Overcast,340,2013-12-23 13:55:00
8:15 AM,11.1,2.7,69,30.56,10.0,NNW,10.4,-,N/A,,Overcast,340,2013-12-23 14:15:00
8:35 AM,10.8,1.4,66,30.56,10.0,North,8.1,-,N/A,,Overcast,350,2013-12-23 14:35:00
8:55 AM,10.4,0.7,65,30.57,10.0,North,9.2,-,N/A,,Overcast,350,2013-12-23 14:55:00
9:15 AM,9.5,-0.9,63,30.58,10.0,North,9.2,16.1,N/A,,Mostly Cloudy,360,2013-12-23 15:15:00
9:35 AM,10.4,-0.2,62,30.58,10.0,North,11.5,-,N/A,,Mostly Cloudy,350,2013-12-23 15:35:00
9:55 AM,10.2,-0.9,61,30.58,10.0,North,11.5,-,N/A,,Mostly Cloudy,350,2013-12-23 15:55:00
10:15 AM,10.4,-1.3,59,30.59,10.0,North,11.5,-,N/A,,Scattered Clouds,350,2013-12-23 16:15:00
10:35 AM,10.4,-0.6,61,30.59,10.0,NNW,6.9,-,N/A,,Scattered Clouds,340,2013-12-23 16:35:00
10:55 AM,10.4,-1.3,59,30.60,10.0,NNW,9.2,-,N/A,,Scattered Clouds,340,2013-12-23 16:55:00
11:15 AM,10.6,-1.8,57,30.60,10.0,NNW,8.1,-,N/A,,Scattered Clouds,330,2013-12-23 17:15:00
11:35 AM,11.3,-0.9,58,30.59,10.0,North,9.2,-,N/A,,Clear,350,2013-12-23 17:35:00
11:55 AM,11.5,-0.8,58,30.58,10.0,NNW,8.1,-,N/A,,Clear,340,2013-12-23 17:55:00
12:15 PM,12.2,-0.0,58,30.58,10.0,NNW,9.2,-,N/A,,Clear,330,2013-12-23 18:15:00
12:35 PM,12.2,-0.0,58,30.57,10.0,NNW,8.1,-,N/A,,Clear,330,2013-12-23 18:35:00
12:55 PM,12.9,0.7,58,30.56,10.0,NW,5.8,-,N/A,,Mostly Cloudy,320,2013-12-23 18:55:00
1:15 PM,12.2,1.2,61,30.56,10.0,WNW,5.8,-,N/A,,Mostly Cloudy,300,2013-12-23 19:15:00
1:35 PM,12.9,1.9,62,30.55,10.0,West,4.6,-,N/A,,Overcast,280,2013-12-23 19:35:00
1:55 PM,13.5,2.1,61,30.55,10.0,WNW,5.8,-,N/A,,Overcast,290,2013-12-23 19:55:00
2:15 PM,14.0,2.5,60,30.54,10.0,West,6.9,-,N/A,,Overcast,280,2013-12-23 20:15:00
2:35 PM,14.4,3.0,61,30.53,10.0,WNW,5.8,-,N/A,,Mostly Cloudy,300,2013-12-23 20:35:00
2:55 PM,14.0,2.5,60,30.52,10.0,West,5.8,-,N/A,,Mostly Cloudy,280,2013-12-23 20:55:00
3:15 PM,14.4,2.3,59,30.52,10.0,WNW,5.8,-,N/A,,Scattered Clouds,290,2013-12-23 21:15:00
3:35 PM,14.4,3.0,61,30.53,10.0,WNW,5.8,-,N/A,,Scattered Clouds,290,2013-12-23 21:35:00
3:55 PM,14.7,2.5,58,30.53,10.0,WNW,5.8,-,N/A,,Overcast,300,2013-12-23 21:55:00
4:15 PM,14.7,3.2,60,30.54,10.0,West,4.6,-,N/A,,Overcast,280,2013-12-23 22:15:00
4:35 PM,14.7,3.7,62,30.54,10.0,Calm,Calm,-,N/A,,Overcast,0,2013-12-23 22:35:00
4:55 PM,14.5,3.4,61,30.53,10.0,West,3.5,-,N/A,,Overcast,280,2013-12-23 22:55:00
5:15 PM,13.1,2.1,62,30.52,10.0,Calm,Calm,-,N/A,,Scattered Clouds,0,2013-12-23 23:15:00
5:35 PM,12.7,2.3,63,30.52,10.0,Calm,Calm,-,N/A,,Scattered Clouds,0,2013-12-23 23:35:00
5:45 PM,78.8,66.2,65,29.97,15.0,NE,18.4,-,N/A,,Scattered Clouds,40,2013-12-23 23:45:00
5:55 PM,11.1,2.7,69,30.52,10.0,Calm,Calm,-,N/A,,Mostly Cloudy,0,2013-12-23 23:55:00
6:15 PM,12.2,3.4,68,30.51,10.0,Calm,Calm,-,N/A,,Overcast,0,2013-12-24 00:15:00
6:35 PM,13.3,4.5,68,30.51,10.0,Calm,Calm,-,N/A,,Overcast,0,2013-12-24 00:35:00
6:55 PM,14.0,4.6,66,30.51,10.0,Calm,Calm,-,N/A,,Overcast,0,2013-12-24 00:55:00
7:15 PM,14.0,5.7,70,30.52,10.0,Calm,Calm,-,N/A,,Overcast,0,2013-12-24 01:15:00
7:35 PM,14.4,4.8,66,30.52,10.0,Calm,Calm,-,N/A,,Overcast,0,2013-12-24 01:35:00
7:55 PM,14.9,5.0,65,30.52,10.0,Calm,Calm,-,N/A,,Overcast,0,2013-12-24 01:55:00
8:15 PM,14.9,4.1,62,30.52,10.0,Calm,Calm,-,N/A,,Overcast,0,2013-12-24 02:15:00
8:35 PM,15.3,4.6,63,30.52,10.0,ESE,3.5,-,N/A,,Overcast,120,2013-12-24 02:35:00
8:55 PM,15.3,5.4,65,30.51,10.0,SE,4.6,-,N/A,,Overcast,140,2013-12-24 02:55:00
9:15 PM,15.3,5.4,65,30.51,10.0,ESE,4.6,-,N/A,,Overcast,110,2013-12-24 03:15:00
9:35 PM,15.4,6.1,67,30.50,10.0,SE,6.9,-,N/A,,Overcast,140,2013-12-24 03:35:00
9:55 PM,15.1,6.8,70,30.50,10.0,SE,6.9,-,N/A,,Overcast,140,2013-12-24 03:55:00
10:15 PM,14.0,5.9,70,30.49,10.0,SSE,5.8,-,N/A,,Overcast,150,2013-12-24 04:15:00
10:35 PM,13.6,5.7,71,30.49,10.0,SSE,5.8,-,N/A,,Mostly Cloudy,150,2013-12-24 04:35:00
10:55 PM,11.1,4.3,74,30.49,10.0,SSE,5.8,-,N/A,,Scattered Clouds,150,2013-12-24 04:55:00
11:20 PM,10.4,4.1,76,30.48,10.0,SSE,5.8,-,N/A,,Scattered Clouds,160,2013-12-24 05:20:00
11:35 PM,11.1,4.8,76,30.49,10.0,South,4.6,-,N/A,,Mostly Cloudy,180,2013-12-24 05:35:00
11:55 PM,10.0,4.1,77,30.47,10.0,South,4.6,-,N/A,,Scattered Clouds,170,2013-12-24 05:55:00